sensor_id;sensor_type;location;lat;lon;timestamp;pressure;altitude;pressure_sealevel;temperature;humidity
60852;BME280;48553;50.766;2.900;2022-09-23T00:01:47;101050.38;;;16.41;50.80
60852;BME280;48553;50.766;2.900;2022-09-23T00:04:47;101042.03;;;16.38;50.87
60852;BME280;48553;50.766;2.900;2022-09-23T00:07:48;101043.19;;;16.37;50.77
60852;BME280;48553;50.766;2.900;2022-09-23T00:10:48;101042.03;;;16.38;50.70
60852;BME280;48553;50.766;2.900;2022-09-23T00:13:54;101028.50;;;16.33;50.93
60852;BME280;48553;50.766;2.900;2022-09-23T00:16:54;101034.91;;;16.37;50.68
60852;BME280;48553;50.766;2.900;2022-09-23T00:19:55;101028.44;;;16.29;50.71
60852;BME280;48553;50.766;2.900;2022-09-23T00:22:55;101030.44;;;16.28;50.75
60852;BME280;48553;50.766;2.900;2022-09-23T00:25:58;101032.38;;;16.28;50.67
60852;BME280;48553;50.766;2.900;2022-09-23T00:28:59;101029.91;;;16.23;50.78
60852;BME280;48553;50.766;2.900;2022-09-23T00:32:00;101031.44;;;16.20;50.85
60852;BME280;48553;50.766;2.900;2022-09-23T00:35:01;101025.91;;;16.20;50.93
60852;BME280;48553;50.766;2.900;2022-09-23T00:38:03;101030.59;;;16.16;50.74
60852;BME280;48553;50.766;2.900;2022-09-23T00:41:03;101017.16;;;16.15;50.95
60852;BME280;48553;50.766;2.900;2022-09-23T00:50:52;101000.78;;;16.06;50.91
60852;BME280;48553;50.766;2.900;2022-09-23T00:53:53;101005.50;;;16.05;51.05
60852;BME280;48553;50.766;2.900;2022-09-23T00:56:55;101000.72;;;16.02;51.08
60852;BME280;48553;50.766;2.900;2022-09-23T00:59:56;100999.41;;;15.96;51.30
60852;BME280;48553;50.766;2.900;2022-09-23T01:02:57;100988.34;;;15.96;51.21
60852;BME280;48553;50.766;2.900;2022-09-23T01:05:58;100999.34;;;15.93;51.27
60852;BME280;48553;50.766;2.900;2022-09-23T01:08:58;100993.03;;;15.92;51.14
60852;BME280;48553;50.766;2.900;2022-09-23T01:12:41;100994.53;;;15.90;51.22
60852;BME280;48553;50.766;2.900;2022-09-23T01:22:43;100982.56;;;15.82;51.17
60852;BME280;48553;50.766;2.900;2022-09-23T01:39:10;100975.66;;;15.72;51.33
60852;BME280;48553;50.766;2.900;2022-09-23T01:42:37;100977.63;;;15.72;51.31
60852;BME280;48553;50.766;2.900;2022-09-23T01:45:44;100970.03;;;15.69;51.38
60852;BME280;48553;50.766;2.900;2022-09-23T01:48:52;100979.84;;;15.66;51.52
60852;BME280;48553;50.766;2.900;2022-09-23T01:52:03;100982.19;;;15.64;51.35
60852;BME280;48553;50.766;2.900;2022-09-23T01:55:14;100987.66;;;15.60;51.41
60852;BME280;48553;50.766;2.900;2022-09-23T01:58:24;100977.31;;;15.57;51.47
60852;BME280;48553;50.766;2.900;2022-09-23T02:01:33;100981.59;;;15.55;51.66
60852;BME280;48553;50.766;2.900;2022-09-23T02:04:53;100968.53;;;15.52;51.56
60852;BME280;48553;50.766;2.900;2022-09-23T02:11:06;100970.13;;;15.53;51.62
60852;BME280;48553;50.766;2.900;2022-09-23T02:14:11;100963.78;;;15.52;51.76
60852;BME280;48553;50.766;2.900;2022-09-23T02:17:21;100954.28;;;15.50;51.72
60852;BME280;48553;50.766;2.900;2022-09-23T02:20:28;100960.94;;;15.49;51.70
60852;BME280;48553;50.766;2.900;2022-09-23T02:23:34;100955.41;;;15.49;51.70
60852;BME280;48553;50.766;2.900;2022-09-23T02:27:19;100947.44;;;15.43;51.97
60852;BME280;48553;50.766;2.900;2022-09-23T02:30:15;100951.00;;;15.44;51.92
60852;BME280;48553;50.766;2.900;2022-09-23T02:33:23;100953.34;;;15.42;51.88
60852;BME280;48553;50.766;2.900;2022-09-23T02:36:30;100957.25;;;15.41;52.05
60852;BME280;48553;50.766;2.900;2022-09-23T02:43:04;100948.47;;;15.35;52.18
60852;BME280;48553;50.766;2.900;2022-09-23T02:46:06;100946.06;;;15.34;52.09
60852;BME280;48553;50.766;2.900;2022-09-23T02:52:12;100937.78;;;15.34;52.25
60852;BME280;48553;50.766;2.900;2022-09-23T02:55:16;100936.16;;;15.33;52.15
60852;BME280;48553;50.766;2.900;2022-09-23T02:58:17;100934.56;;;15.32;52.15
60852;BME280;48553;50.766;2.900;2022-09-23T03:11:38;100915.91;;;15.25;52.63
60852;BME280;48553;50.766;2.900;2022-09-23T03:14:44;100912.34;;;15.24;52.69
60852;BME280;48553;50.766;2.900;2022-09-23T03:21:05;100922.50;;;15.20;52.72
60852;BME280;48553;50.766;2.900;2022-09-23T03:24:08;100917.34;;;15.19;52.76
60852;BME280;48553;50.766;2.900;2022-09-23T03:27:19;100922.06;;;15.18;53.07
60852;BME280;48553;50.766;2.900;2022-09-23T03:30:21;100922.06;;;15.18;52.79
60852;BME280;48553;50.766;2.900;2022-09-23T03:33:24;100927.59;;;15.18;52.61
60852;BME280;48553;50.766;2.900;2022-09-23T03:36:41;100937.06;;;15.17;52.83
60852;BME280;48553;50.766;2.900;2022-09-23T03:40:07;100920.75;;;15.12;52.92
60852;BME280;48553;50.766;2.900;2022-09-23T03:43:09;100929.41;;;15.11;52.94
60852;BME280;48553;50.766;2.900;2022-09-23T03:46:13;100930.94;;;15.08;53.06
60852;BME280;48553;50.766;2.900;2022-09-23T03:49:25;100932.44;;;15.06;53.05
60852;BME280;48553;50.766;2.900;2022-09-23T03:52:27;100926.50;;;15.03;53.13
60852;BME280;48553;50.766;2.900;2022-09-23T03:55:27;100929.34;;;15.07;53.10
60852;BME280;48553;50.766;2.900;2022-09-23T03:58:28;100915.03;;;15.01;53.10
60852;BME280;48553;50.766;2.900;2022-09-23T04:01:28;100922.09;;;14.99;53.33
60852;BME280;48553;50.766;2.900;2022-09-23T04:04:28;100916.19;;;15.00;53.46
60852;BME280;48553;50.766;2.900;2022-09-23T04:07:32;100903.91;;;14.98;53.43
60852;BME280;48553;50.766;2.900;2022-09-23T04:10:33;100902.75;;;14.99;53.43
60852;BME280;48553;50.766;2.900;2022-09-23T04:13:33;100907.84;;;14.97;53.47
60852;BME280;48553;50.766;2.900;2022-09-23T04:16:33;100917.66;;;14.94;53.36
60852;BME280;48553;50.766;2.900;2022-09-23T04:19:34;100927.16;;;14.97;53.48
60852;BME280;48553;50.766;2.900;2022-09-23T04:22:34;100913.63;;;14.92;53.58
60852;BME280;48553;50.766;2.900;2022-09-23T04:25:47;100910.44;;;14.90;53.43
60852;BME280;48553;50.766;2.900;2022-09-23T04:28:48;100910.44;;;14.90;53.72
60852;BME280;48553;50.766;2.900;2022-09-23T04:31:49;100918.34;;;14.91;53.67
60852;BME280;48553;50.766;2.900;2022-09-23T04:34:49;100914.34;;;14.89;53.83
60852;BME280;48553;50.766;2.900;2022-09-23T04:37:50;100910.81;;;14.88;53.77
60852;BME280;48553;50.766;2.900;2022-09-23T04:40:50;100903.31;;;14.89;53.87
60852;BME280;48553;50.766;2.900;2022-09-23T04:43:51;100906.81;;;14.86;53.82
60852;BME280;48553;50.766;2.900;2022-09-23T04:46:51;100906.81;;;14.86;53.91
60852;BME280;48553;50.766;2.900;2022-09-23T04:49:52;100900.06;;;14.83;54.17
60852;BME280;48553;50.766;2.900;2022-09-23T04:52:53;100903.50;;;14.80;54.17
60852;BME280;48553;50.766;2.900;2022-09-23T04:56:00;100905.94;;;14.81;53.97
60852;BME280;48553;50.766;2.900;2022-09-23T04:59:00;100906.66;;;14.78;54.31
60852;BME280;48553;50.766;2.900;2022-09-23T05:02:01;100904.31;;;14.80;54.13
60852;BME280;48553;50.766;2.900;2022-09-23T05:05:01;100898.00;;;14.80;54.15
60852;BME280;48553;50.766;2.900;2022-09-23T05:08:03;100901.13;;;14.78;54.01
60852;BME280;48553;50.766;2.900;2022-09-23T05:11:04;100898.38;;;14.78;54.18
60852;BME280;48553;50.766;2.900;2022-09-23T05:14:04;100901.84;;;14.75;54.18
60852;BME280;48553;50.766;2.900;2022-09-23T05:17:05;100902.22;;;14.74;54.28
60852;BME280;48553;50.766;2.900;2022-09-23T05:20:05;100897.94;;;14.76;54.27
60852;BME280;48553;50.766;2.900;2022-09-23T05:23:06;100892.69;;;14.71;54.50
60852;BME280;48553;50.766;2.900;2022-09-23T05:26:10;100897.69;;;14.66;54.53
60852;BME280;48553;50.766;2.900;2022-09-23T05:29:10;100889.91;;;14.71;54.55
60852;BME280;48553;50.766;2.900;2022-09-23T05:32:11;100900.97;;;14.71;54.31
60852;BME280;48553;50.766;2.900;2022-09-23T05:35:11;100906.41;;;14.68;54.53
60852;BME280;48553;50.766;2.900;2022-09-23T05:38:13;100903.22;;;14.66;54.53
60852;BME280;48553;50.766;2.900;2022-09-23T05:41:16;100907.94;;;14.65;54.64
60852;BME280;48553;50.766;2.900;2022-09-23T05:44:17;100906.75;;;14.66;54.58
60852;BME280;48553;50.766;2.900;2022-09-23T05:47:18;100912.72;;;14.68;54.43
60852;BME280;48553;50.766;2.900;2022-09-23T05:50:18;100907.94;;;14.65;54.77
60852;BME280;48553;50.766;2.900;2022-09-23T05:53:18;100909.53;;;14.66;54.62
60852;BME280;48553;50.766;2.900;2022-09-23T05:56:20;100912.28;;;14.66;54.71
60852;BME280;48553;50.766;2.900;2022-09-23T05:59:21;100913.00;;;14.63;55.06
60852;BME280;48553;50.766;2.900;2022-09-23T06:02:21;100905.16;;;14.65;54.65
60852;BME280;48553;50.766;2.900;2022-09-23T06:05:22;100901.19;;;14.63;54.76
60852;BME280;48553;50.766;2.900;2022-09-23T06:08:23;100908.28;;;14.64;54.80
60852;BME280;48553;50.766;2.900;2022-09-23T06:11:24;100905.06;;;14.61;54.86
60852;BME280;48553;50.766;2.900;2022-09-23T06:14:24;100903.94;;;14.63;54.93
60852;BME280;48553;50.766;2.900;2022-09-23T06:17:25;100894.03;;;14.61;54.84
60852;BME280;48553;50.766;2.900;2022-09-23T06:20:25;100887.38;;;14.63;55.04
60852;BME280;48553;50.766;2.900;2022-09-23T06:23:26;100887.72;;;14.61;54.94
60852;BME280;48553;50.766;2.900;2022-09-23T06:26:26;100887.72;;;14.61;54.91
60852;BME280;48553;50.766;2.900;2022-09-23T06:29:32;100881.50;;;14.64;55.10
60852;BME280;48553;50.766;2.900;2022-09-23T06:32:33;100884.97;;;14.61;55.04
60852;BME280;48553;50.766;2.900;2022-09-23T06:35:33;100888.19;;;14.63;55.14
60852;BME280;48553;50.766;2.900;2022-09-23T06:38:37;100884.63;;;14.63;55.01
60852;BME280;48553;50.766;2.900;2022-09-23T06:41:38;100891.81;;;14.67;55.04
60852;BME280;48553;50.766;2.900;2022-09-23T06:44:39;100879.97;;;14.67;55.00
60852;BME280;48553;50.766;2.900;2022-09-23T06:47:42;100878.81;;;14.68;55.10
60852;BME280;48553;50.766;2.900;2022-09-23T06:50:43;100876.06;;;14.68;55.12
60852;BME280;48553;50.766;2.900;2022-09-23T06:53:48;100884.34;;;14.68;55.30
60852;BME280;48553;50.766;2.900;2022-09-23T06:56:48;100883.59;;;14.71;55.19
60852;BME280;48553;50.766;2.900;2022-09-23T06:59:49;100879.72;;;14.72;55.35
60852;BME280;48553;50.766;2.900;2022-09-23T07:02:50;100884.50;;;14.75;55.28
60852;BME280;48553;50.766;2.900;2022-09-23T07:05:54;100876.56;;;14.73;55.59
60852;BME280;48553;50.766;2.900;2022-09-23T07:08:55;100872.28;;;14.76;55.58
60852;BME280;48553;50.766;2.900;2022-09-23T07:11:55;100875.47;;;14.78;55.55
60852;BME280;48553;50.766;2.900;2022-09-23T07:14:55;100890.50;;;14.80;55.58
60852;BME280;48553;50.766;2.900;2022-09-23T07:17:56;100885.44;;;14.82;55.79
60852;BME280;48553;50.766;2.900;2022-09-23T07:21:07;100883.91;;;14.85;55.55
60852;BME280;48553;50.766;2.900;2022-09-23T07:24:07;100893.44;;;14.88;55.75
60852;BME280;48553;50.766;2.900;2022-09-23T07:27:08;100880.44;;;14.88;55.69
60852;BME280;48553;50.766;2.900;2022-09-23T07:30:09;100884.44;;;14.91;55.65
60852;BME280;48553;50.766;2.900;2022-09-23T07:33:10;100882.03;;;14.89;55.78
60852;BME280;48553;50.766;2.900;2022-09-23T07:36:12;100888.78;;;14.92;55.74
60852;BME280;48553;50.766;2.900;2022-09-23T07:39:13;100888.06;;;14.95;55.60
60852;BME280;48553;50.766;2.900;2022-09-23T07:42:14;100899.47;;;14.93;55.89
60852;BME280;48553;50.766;2.900;2022-09-23T07:45:14;100894.38;;;14.95;55.73
60852;BME280;48553;50.766;2.900;2022-09-23T07:48:15;100905.94;;;15.01;55.83
60852;BME280;48553;50.766;2.900;2022-09-23T07:51:18;100911.44;;;15.01;55.81
60852;BME280;48553;50.766;2.900;2022-09-23T07:54:20;100913.06;;;15.02;55.93
60852;BME280;48553;50.766;2.900;2022-09-23T07:57:20;100905.22;;;15.04;56.21
60852;BME280;48553;50.766;2.900;2022-09-23T08:00:21;100907.25;;;15.07;56.15
60852;BME280;48553;50.766;2.900;2022-09-23T08:03:21;100900.59;;;15.08;56.20
60852;BME280;48553;50.766;2.900;2022-09-23T08:06:22;100902.16;;;15.09;56.33
60852;BME280;48553;50.766;2.900;2022-09-23T08:09:25;100897.88;;;15.12;56.41
60852;BME280;48553;50.766;2.900;2022-09-23T08:12:27;100906.59;;;15.14;56.47
60852;BME280;48553;50.766;2.900;2022-09-23T08:15:29;100910.97;;;15.15;56.27
60852;BME280;48553;50.766;2.900;2022-09-23T08:18:30;100904.72;;;15.18;56.16
60852;BME280;48553;50.766;2.900;2022-09-23T08:21:30;100910.28;;;15.21;56.28
60852;BME280;48553;50.766;2.900;2022-09-23T08:24:31;100917.06;;;15.24;56.18
60852;BME280;48553;50.766;2.900;2022-09-23T08:27:31;100916.44;;;15.31;56.24
60852;BME280;48553;50.766;2.900;2022-09-23T08:30:32;100919.25;;;15.34;56.17
60852;BME280;48553;50.766;2.900;2022-09-23T08:33:32;100918.50;;;15.37;56.13
60852;BME280;48553;50.766;2.900;2022-09-23T08:36:33;100918.22;;;15.42;56.32
60852;BME280;48553;50.766;2.900;2022-09-23T08:39:34;100914.44;;;15.51;56.41
60852;BME280;48553;50.766;2.900;2022-09-23T08:42:38;100920.81;;;15.55;56.86
60852;BME280;48553;50.766;2.900;2022-09-23T08:45:40;100919.38;;;15.61;56.84
60852;BME280;48553;50.766;2.900;2022-09-23T08:48:44;100924.94;;;15.64;56.60
60852;BME280;48553;50.766;2.900;2022-09-23T08:51:46;100925.38;;;15.66;57.30
60852;BME280;48553;50.766;2.900;2022-09-23T08:54:47;100932.59;;;15.71;56.87
60852;BME280;48553;50.766;2.900;2022-09-23T09:01:37;100927.59;;;15.77;56.96
60852;BME280;48553;50.766;2.900;2022-09-23T09:04:41;100928.47;;;15.81;56.90
60852;BME280;48553;50.766;2.900;2022-09-23T09:07:43;100937.59;;;15.85;56.73
60852;BME280;48553;50.766;2.900;2022-09-23T09:10:45;100935.78;;;15.93;57.84
60852;BME280;48553;50.766;2.900;2022-09-23T09:17:14;100929.25;;;16.04;57.07
60852;BME280;48553;50.766;2.900;2022-09-23T09:20:44;100923.38;;;16.06;56.51
60852;BME280;48553;50.766;2.900;2022-09-23T09:23:58;100927.84;;;16.14;57.70
60852;BME280;48553;50.766;2.900;2022-09-23T09:27:10;100923.16;;;16.18;57.20
60852;BME280;48553;50.766;2.900;2022-09-23T09:30:11;100926.44;;;16.24;57.31
60852;BME280;48553;50.766;2.900;2022-09-23T09:33:17;100923.38;;;16.33;57.59
60852;BME280;48553;50.766;2.900;2022-09-23T09:39:29;100913.34;;;16.47;57.46
60852;BME280;48553;50.766;2.900;2022-09-23T09:42:36;100915.47;;;16.58;57.69
60852;BME280;48553;50.766;2.900;2022-09-23T09:52:20;100902.41;;;16.81;57.88
60852;BME280;48553;50.766;2.900;2022-09-23T09:55:26;100894.97;;;16.85;57.60
60852;BME280;48553;50.766;2.900;2022-09-23T09:58:31;100904.47;;;16.88;57.10
60852;BME280;48553;50.766;2.900;2022-09-23T10:01:34;100898.25;;;16.95;57.28
60852;BME280;48553;50.766;2.900;2022-09-23T10:04:34;100895.94;;;17.00;57.64
60852;BME280;48553;50.766;2.900;2022-09-23T10:07:35;100909.03;;;17.03;57.17
60852;BME280;48553;50.766;2.900;2022-09-23T10:10:35;100911.03;;;17.06;57.30
60852;BME280;48553;50.766;2.900;2022-09-23T10:13:36;100905.16;;;17.08;57.63
60852;BME280;48553;50.766;2.900;2022-09-23T10:16:37;100895.28;;;17.10;57.45
60852;BME280;48553;50.766;2.900;2022-09-23T10:19:45;100898.47;;;17.13;57.75
60852;BME280;48553;50.766;2.900;2022-09-23T10:22:46;100898.91;;;17.15;58.12
60852;BME280;48553;50.766;2.900;2022-09-23T10:25:59;100896.53;;;17.17;58.31
60852;BME280;48553;50.766;2.900;2022-09-23T10:32:32;100883.50;;;17.17;57.47
60852;BME280;48553;50.766;2.900;2022-09-23T10:35:32;100890.25;;;17.20;58.47
60852;BME280;48553;50.766;2.900;2022-09-23T10:38:33;100887.91;;;17.22;58.15
60852;BME280;48553;50.766;2.900;2022-09-23T10:41:40;100884.31;;;17.21;57.72
60852;BME280;48553;50.766;2.900;2022-09-23T10:45:29;100884.72;;;17.23;58.01
60852;BME280;48553;50.766;2.900;2022-09-23T10:55:34;100891.19;;;17.35;58.54
60852;BME280;48553;50.766;2.900;2022-09-23T11:12:43;100882.47;;;17.70;57.57
60852;BME280;48553;50.766;2.900;2022-09-23T11:27:00;100880.75;;;17.95;59.21
60852;BME280;48553;50.766;2.900;2022-09-23T11:33:22;100873.31;;;18.03;57.84
60852;BME280;48553;50.766;2.900;2022-09-23T11:36:31;100862.25;;;18.10;58.06
60852;BME280;48553;50.766;2.900;2022-09-23T11:39:45;100868.22;;;18.16;59.40
60852;BME280;48553;50.766;2.900;2022-09-23T11:45:59;100864.78;;;18.33;59.55
60852;BME280;48553;50.766;2.900;2022-09-23T11:49:18;100859.22;;;18.30;59.37
60852;BME280;48553;50.766;2.900;2022-09-23T11:52:25;100863.59;;;18.31;59.01
60852;BME280;48553;50.766;2.900;2022-09-23T11:55:34;100863.19;;;18.29;59.20
60852;BME280;48553;50.766;2.900;2022-09-23T11:58:44;100850.88;;;18.30;58.56
60852;BME280;48553;50.766;2.900;2022-09-23T12:01:53;100860.41;;;18.32;59.31
60852;BME280;48553;50.766;2.900;2022-09-23T12:05:10;100856.09;;;18.35;59.80
60852;BME280;48553;50.766;2.900;2022-09-23T12:08:31;100865.63;;;18.38;59.89
60852;BME280;48553;50.766;2.900;2022-09-23T12:11:40;100855.72;;;18.40;60.07
60852;BME280;48553;50.766;2.900;2022-09-23T12:15:11;100857.34;;;18.45;60.09
60852;BME280;48553;50.766;2.900;2022-09-23T12:22:03;100849.00;;;18.48;60.51
60852;BME280;48553;50.766;2.900;2022-09-23T12:28:38;100831.59;;;18.51;59.68
60852;BME280;48553;50.766;2.900;2022-09-23T12:31:40;100833.22;;;18.60;59.64
60852;BME280;48553;50.766;2.900;2022-09-23T12:34:47;100830.84;;;18.62;59.67
60852;BME280;48553;50.766;2.900;2022-09-23T12:37:50;100823.75;;;18.68;58.98
60852;BME280;48553;50.766;2.900;2022-09-23T12:40:54;100826.16;;;18.69;59.13
60852;BME280;48553;50.766;2.900;2022-09-23T12:50:48;100836.13;;;18.77;59.45
60852;BME280;48553;50.766;2.900;2022-09-23T12:57:08;100825.81;;;18.82;58.96
60852;BME280;48553;50.766;2.900;2022-09-23T13:00:13;100821.47;;;18.81;59.22
60852;BME280;48553;50.766;2.900;2022-09-23T13:03:20;100819.09;;;18.86;59.10
60852;BME280;48553;50.766;2.900;2022-09-23T13:06:41;100823.44;;;18.84;59.01
60852;BME280;48553;50.766;2.900;2022-09-23T13:09:46;100810.34;;;18.81;58.79
60852;BME280;48553;50.766;2.900;2022-09-23T13:12:48;100814.69;;;18.78;59.24
60852;BME280;48553;50.766;2.900;2022-09-23T13:15:51;100812.28;;;18.76;58.99
60852;BME280;48553;50.766;2.900;2022-09-23T13:18:54;100811.13;;;18.77;59.06
60852;BME280;48553;50.766;2.900;2022-09-23T13:21:59;100805.13;;;18.75;59.03
60852;BME280;48553;50.766;2.900;2022-09-23T13:25:01;100804.72;;;18.73;58.29
60852;BME280;48553;50.766;2.900;2022-09-23T13:28:25;100800.75;;;18.71;57.69
60852;BME280;48553;50.766;2.900;2022-09-23T13:31:26;100801.91;;;18.66;57.64
60852;BME280;48553;50.766;2.900;2022-09-23T13:34:31;100801.88;;;18.59;57.56
60852;BME280;48553;50.766;2.900;2022-09-23T13:37:48;100800.66;;;18.53;57.96
60852;BME280;48553;50.766;2.900;2022-09-23T13:40:49;100807.78;;;18.47;58.63
60852;BME280;48553;50.766;2.900;2022-09-23T13:43:52;100799.44;;;18.40;59.26
60852;BME280;48553;50.766;2.900;2022-09-23T13:46:55;100804.53;;;18.34;60.45
60852;BME280;48553;50.766;2.900;2022-09-23T13:49:57;100803.72;;;18.30;60.69
60852;BME280;48553;50.766;2.900;2022-09-23T13:53:05;100796.56;;;18.25;61.30
60852;BME280;48553;50.766;2.900;2022-09-23T13:56:14;100805.25;;;18.20;61.52
60852;BME280;48553;50.766;2.900;2022-09-23T13:59:35;100804.44;;;18.16;61.12
60852;BME280;48553;50.766;2.900;2022-09-23T14:02:43;100807.59;;;18.14;60.78
60852;BME280;48553;50.766;2.900;2022-09-23T14:05:46;100796.47;;;18.11;60.76
60852;BME280;48553;50.766;2.900;2022-09-23T14:08:48;100800.41;;;18.06;60.75
60852;BME280;48553;50.766;2.900;2022-09-23T14:11:50;100800.41;;;18.06;60.56
60852;BME280;48553;50.766;2.900;2022-09-23T14:14:51;100796.44;;;18.04;60.74
60852;BME280;48553;50.766;2.900;2022-09-23T14:17:56;100789.69;;;18.01;60.74
60852;BME280;48553;50.766;2.900;2022-09-23T14:20:59;100786.88;;;17.98;61.16
60852;BME280;48553;50.766;2.900;2022-09-23T14:27:27;100784.47;;;17.92;61.10
60852;BME280;48553;50.766;2.900;2022-09-23T14:30:28;100787.25;;;17.92;61.13
60852;BME280;48553;50.766;2.900;2022-09-23T14:33:31;100781.28;;;17.90;61.37
60852;BME280;48553;50.766;2.900;2022-09-23T14:36:34;100776.53;;;17.91;61.11
60852;BME280;48553;50.766;2.900;2022-09-23T14:39:53;100776.09;;;17.89;61.90
60852;BME280;48553;50.766;2.900;2022-09-23T14:43:16;100787.59;;;17.87;61.83
60852;BME280;48553;50.766;2.900;2022-09-23T14:46:22;100776.09;;;17.85;62.01
60852;BME280;48553;50.766;2.900;2022-09-23T14:49:24;100771.72;;;17.84;62.35
60852;BME280;48553;50.766;2.900;2022-09-23T14:52:25;100774.91;;;17.83;62.30
60852;BME280;48553;50.766;2.900;2022-09-23T14:55:27;100772.84;;;17.80;62.51
60852;BME280;48553;50.766;2.900;2022-09-23T14:58:27;100767.69;;;17.78;62.76
60852;BME280;48553;50.766;2.900;2022-09-23T15:04:31;100762.16;;;17.78;62.98
60852;BME280;48553;50.766;2.900;2022-09-23T15:07:35;100766.88;;;17.78;63.18
60852;BME280;48553;50.766;2.900;2022-09-23T15:10:37;100754.97;;;17.73;63.22
60852;BME280;48553;50.766;2.900;2022-09-23T15:13:40;100764.47;;;17.72;63.58
60852;BME280;48553;50.766;2.900;2022-09-23T15:16:45;100760.13;;;17.71;63.72
60852;BME280;48553;50.766;2.900;2022-09-23T15:19:50;100757.31;;;17.68;63.50
60852;BME280;48553;50.766;2.900;2022-09-23T15:22:54;100756.91;;;17.66;63.91
60852;BME280;48553;50.766;2.900;2022-09-23T15:25:55;100753.72;;;17.64;63.56
60852;BME280;48553;50.766;2.900;2022-09-23T15:28:57;100749.31;;;17.59;64.77
60852;BME280;48553;50.766;2.900;2022-09-23T15:31:58;100758.41;;;17.56;64.69
60852;BME280;48553;50.766;2.900;2022-09-23T15:34:59;100747.69;;;17.54;64.80
60852;BME280;48553;50.766;2.900;2022-09-23T15:38:00;100743.72;;;17.52;64.81
60852;BME280;48553;50.766;2.900;2022-09-23T15:41:02;100741.31;;;17.50;64.91
60852;BME280;48553;50.766;2.900;2022-09-23T15:44:17;100739.72;;;17.46;64.86
60852;BME280;48553;50.766;2.900;2022-09-23T15:47:19;100736.53;;;17.44;64.98
60852;BME280;48553;50.766;2.900;2022-09-23T15:50:20;100730.19;;;17.43;64.66
60852;BME280;48553;50.766;2.900;2022-09-23T15:53:23;100729.75;;;17.38;64.65
60852;BME280;48553;50.766;2.900;2022-09-23T15:56:25;100728.13;;;17.33;65.03
60852;BME280;48553;50.766;2.900;2022-09-23T15:59:27;100728.94;;;17.33;64.47
60852;BME280;48553;50.766;2.900;2022-09-23T16:02:27;100728.47;;;17.28;64.74
60852;BME280;48553;50.766;2.900;2022-09-23T16:05:36;100728.47;;;17.28;64.54
60852;BME280;48553;50.766;2.900;2022-09-23T16:08:37;100727.69;;;17.27;64.63
60852;BME280;48553;50.766;2.900;2022-09-23T16:11:39;100733.19;;;17.24;64.75
60852;BME280;48553;50.766;2.900;2022-09-23T16:14:42;100739.13;;;17.22;64.50
60852;BME280;48553;50.766;2.900;2022-09-23T16:17:42;100724.06;;;17.20;64.48
60852;BME280;48553;50.766;2.900;2022-09-23T16:20:44;100732.31;;;17.16;65.20
60852;BME280;48553;50.766;2.900;2022-09-23T16:23:46;100730.34;;;17.17;64.91
60852;BME280;48553;50.766;2.900;2022-09-23T16:26:48;100733.50;;;17.15;65.01
60852;BME280;48553;50.766;2.900;2022-09-23T16:29:49;100727.94;;;17.11;65.21
60852;BME280;48553;50.766;2.900;2022-09-23T16:32:49;100729.84;;;17.07;65.46
60852;BME280;48553;50.766;2.900;2022-09-23T16:35:50;100731.84;;;17.07;65.34
60852;BME280;48553;50.766;2.900;2022-09-23T16:38:52;100726.66;;;17.02;65.59
60852;BME280;48553;50.766;2.900;2022-09-23T16:41:54;100742.47;;;17.01;65.12
60852;BME280;48553;50.766;2.900;2022-09-23T16:44:55;100741.66;;;17.01;65.26
60852;BME280;48553;50.766;2.900;2022-09-23T16:47:56;100743.22;;;16.98;65.02
60852;BME280;48553;50.766;2.900;2022-09-23T16:50:56;100737.25;;;16.96;65.24
60852;BME280;48553;50.766;2.900;2022-09-23T16:53:57;100733.63;;;16.88;65.47
60852;BME280;48553;50.766;2.900;2022-09-23T16:56:58;100737.97;;;16.86;65.34
60852;BME280;48553;50.766;2.900;2022-09-23T16:59:59;100735.56;;;16.84;65.38
60852;BME280;48553;50.766;2.900;2022-09-23T17:03:18;100732.38;;;16.82;65.32
60852;BME280;48553;50.766;2.900;2022-09-23T17:06:44;100738.69;;;16.79;65.34
60852;BME280;48553;50.766;2.900;2022-09-23T17:09:48;100741.78;;;16.78;65.59
60852;BME280;48553;50.766;2.900;2022-09-23T17:12:49;100746.47;;;16.74;65.49
60852;BME280;48553;50.766;2.900;2022-09-23T17:15:51;100738.94;;;16.70;65.94
60852;BME280;48553;50.766;2.900;2022-09-23T17:18:52;100734.59;;;16.69;65.78
60852;BME280;48553;50.766;2.900;2022-09-23T17:21:55;100723.88;;;16.68;65.80
60852;BME280;48553;50.766;2.900;2022-09-23T17:24:56;100725.44;;;16.65;66.11
60852;BME280;48553;50.766;2.900;2022-09-23T17:27:58;100728.22;;;16.65;66.04
60852;BME280;48553;50.766;2.900;2022-09-23T17:31:01;100724.59;;;16.61;66.13
60852;BME280;48553;50.766;2.900;2022-09-23T17:34:02;100720.69;;;16.62;65.90
60852;BME280;48553;50.766;2.900;2022-09-23T17:37:03;100724.59;;;16.61;66.08
60852;BME280;48553;50.766;2.900;2022-09-23T17:40:04;100723.81;;;16.61;66.30
60852;BME280;48553;50.766;2.900;2022-09-23T17:43:05;100723.03;;;16.60;66.08
60852;BME280;48553;50.766;2.900;2022-09-23T17:46:11;100714.63;;;16.53;66.48
60852;BME280;48553;50.766;2.900;2022-09-23T17:49:11;100720.56;;;16.55;66.40
60852;BME280;48553;50.766;2.900;2022-09-23T17:52:12;100724.53;;;16.54;66.47
60852;BME280;48553;50.766;2.900;2022-09-23T17:55:12;100719.75;;;16.51;66.39
60852;BME280;48553;50.766;2.900;2022-09-23T17:58:13;100719.34;;;16.49;66.86
60852;BME280;48553;50.766;2.900;2022-09-23T18:01:16;100725.16;;;16.44;67.29
60852;BME280;48553;50.766;2.900;2022-09-23T18:04:17;100721.63;;;16.43;67.22
60852;BME280;48553;50.766;2.900;2022-09-23T18:07:18;100718.06;;;16.43;67.19
60852;BME280;48553;50.766;2.900;2022-09-23T18:10:18;100727.94;;;16.44;67.33
60852;BME280;48553;50.766;2.900;2022-09-23T18:13:19;100729.13;;;16.43;67.09
60852;BME280;48553;50.766;2.900;2022-09-23T18:16:21;100721.19;;;16.41;67.40